ADDS METAR Data INFO
IDs: Format: Raw Decoded Include TAF

Data at: 0102 UTC 22 Oct 2017

K2C8 220055Z AUTO 25009G15KT 10SM BKN070 11/07 A2956 RMK AO2
K2C8 220035Z AUTO 23007G14KT 10SM SCT070 SCT080 12/07 A2955 RMK AO2
K2C8 220015Z AUTO 25010KT 10SM SCT075 12/07 A2954 RMK AO2
K2C8 212355Z AUTO 26010KT 10SM BKN075 OVC085 13/07 A2953 RMK AO2
K2C8 212335Z AUTO 24006G12KT 10SM BKN085 BKN100 13/06 A2952 RMK AO2
K2C8 212315Z AUTO 26008G14KT 10SM BKN090 13/07 A2950 RMK AO2
K2C8 212255Z AUTO 27011KT 10SM BKN095 13/07 A2950 RMK AO2
K2C8 212235Z AUTO 28016G22KT 10SM BKN090 13/07 A2949 RMK AO2 LTG DSNT N
K2C8 212215Z AUTO 28016G22KT 10SM BKN095 13/07 A2949 RMK AO2
K2C8 212155Z AUTO 28015G21KT 10SM BKN095 13/07 A2948 RMK AO2 LTG DSNT NE AND E
K2C8 212135Z AUTO 26013G19KT 10SM FEW031 FEW046 BKN100 13/07 A2948 RMK AO2 LTG DSNT N AND NE
K2C8 212115Z AUTO 27018G26KT 5SM -RA SCT031 SCT046 SCT065 13/08 A2945 RMK AO2 LTG DSNT NE
K2C8 212055Z AUTO 25014G22KT 10SM CLR 14/06 A2948 RMK AO2 LTG DSNT SE AND SW
K2C8 212035Z AUTO 25019G26KT 10SM FEW110 15/06 A2947 RMK AO2
K2C8 212015Z AUTO 25015G21KT 10SM CLR 17/06 A2945 RMK AO2
K2C8 211955Z AUTO 23011G20KT 10SM CLR 18/07 A2944 RMK AO2
K2C8 211935Z AUTO 25010G15KT 10SM CLR 19/07 A2943 RMK AO2
K2C8 211915Z AUTO 27011KT 10SM CLR 18/07 A2941 RMK AO2
K2C8 211855Z AUTO 26009G15KT 10SM CLR 18/07 A2941 RMK AO2
K2C8 211835Z AUTO 26011KT 230V290 10SM CLR 18/07 A2941 RMK AO2
K2C8 211815Z AUTO 25010G16KT 10SM CLR 17/06 A2941 RMK AO2
K2C8 211755Z AUTO 26010G16KT 10SM CLR 17/07 A2941 RMK AO2
K2C8 211735Z AUTO 27015G21KT 10SM CLR 17/07 A2941 RMK AO2
K2C8 211715Z AUTO 25015G23KT 10SM CLR 16/07 A2940 RMK AO2
K2C8 211655Z AUTO 24010KT 200V260 10SM CLR 16/07 A2940 RMK AO2
K2C8 211635Z AUTO 23010G15KT 10SM CLR 16/06 A2940 RMK AO2
K2C8 211615Z AUTO 23012KT 10SM CLR 15/06 A2939 RMK AO2
K2C8 211555Z AUTO 23010G16KT 10SM CLR 15/06 A2939 RMK AO2
K2C8 211535Z AUTO 25008G15KT 10SM CLR 14/06 A2936 RMK AO2
K2C8 211515Z AUTO 22006KT 10SM CLR 13/06 A2936 RMK AO2
K2C8 211455Z AUTO 21006KT 10SM CLR 13/06 A2936 RMK AO2
K2C8 211435Z AUTO 23005KT 10SM CLR 12/06 A2933 RMK AO2
K2C8 211415Z AUTO 23007KT 10SM CLR 12/06 A2933 RMK AO2
K2C8 211355Z AUTO 22009KT 9SM CLR 13/09 A2933 RMK AO2
K2C8 211335Z AUTO 20008G13KT 10SM CLR 14/12 A2931 RMK AO2
K2C8 211315Z AUTO 20011G18KT 10SM CLR 15/14 A2930 RMK AO2
K2C8 211255Z AUTO 18014G19KT 10SM CLR 15/15 A2929 RMK AO2
K2C8 211235Z AUTO 18013G19KT 10SM CLR 16/15 A2929 RMK AO2
K2C8 211215Z AUTO 17012G20KT 10SM CLR 16/15 A2929 RMK AO2
K2C8 211155Z AUTO 17013KT 10SM CLR 16/15 A2928 RMK AO2
K2C8 211135Z AUTO 16013G19KT 10SM CLR 16/15 A2928 RMK AO2
K2C8 211115Z AUTO 17014KT 10SM CLR 16/15 A2928 RMK AO2
K2C8 211055Z AUTO 16012G18KT 10SM CLR 16/15 A2928 RMK AO2
K2C8 211035Z AUTO 16012G19KT 10SM CLR 17/15 A2927 RMK AO2
K2C8 211015Z AUTO 16012G17KT 10SM CLR 17/15 A2927 RMK AO2
K2C8 210955Z AUTO 16011KT 10SM CLR 17/15 A2928 RMK AO2
K2C8 210935Z AUTO 17011G17KT 10SM CLR 17/15 A2928 RMK AO2
K2C8 210915Z AUTO 16014G21KT 10SM CLR 17/15 A2928 RMK AO2
K2C8 210855Z AUTO 16014G20KT 10SM CLR 18/15 A2927 RMK AO2
K2C8 210835Z AUTO 17014G20KT 10SM CLR 18/15 A2928 RMK AO2
K2C8 210815Z AUTO 17016KT 10SM CLR 18/14 A2928 RMK AO2
K2C8 210755Z AUTO 17014G21KT 10SM CLR 18/14 A2928 RMK AO2
K2C8 210735Z AUTO 17016G22KT 10SM CLR 18/14 A2928 RMK AO2
K2C8 210715Z AUTO 17016G22KT 10SM CLR 18/14 A2929 RMK AO2
K2C8 210655Z AUTO 16013G20KT 10SM CLR 18/14 A2929 RMK AO2
K2C8 210635Z AUTO 16014G23KT 10SM CLR 19/14 A2930 RMK AO2
K2C8 210615Z AUTO 17013G20KT 10SM CLR 18/14 A2931 RMK AO2
K2C8 210555Z AUTO 17013G19KT 10SM CLR 18/14 A2931 RMK AO2
K2C8 210535Z AUTO 17012G19KT 10SM CLR 18/14 A2931 RMK AO2
K2C8 210515Z AUTO 16013KT 10SM CLR 19/13 A2931 RMK AO2
K2C8 210455Z AUTO 17012G20KT 10SM CLR 19/14 A2931 RMK AO2
K2C8 210435Z AUTO 16015KT 10SM CLR 19/13 A2931 RMK AO2
K2C8 210415Z AUTO 16014G20KT 10SM CLR 19/13 A2932 RMK AO2
K2C8 210355Z AUTO 16013KT 10SM CLR 19/13 A2932 RMK AO2
K2C8 210335Z AUTO 16011G17KT 10SM CLR 19/13 A2932 RMK AO2
K2C8 210315Z AUTO 16010G15KT 10SM CLR 19/13 A2933 RMK AO2
K2C8 210255Z AUTO 16012G17KT 10SM CLR 20/13 A2933 RMK AO2
K2C8 210235Z AUTO 16011KT 10SM CLR 20/13 A2933 RMK AO2
K2C8 210215Z AUTO 16010G15KT 10SM CLR 20/13 A2933 RMK AO2
K2C8 210155Z AUTO 16009G15KT 10SM CLR 20/13 A2933 RMK AO2
K2C8 210135Z AUTO 16008G14KT 10SM CLR 20/12 A2932 RMK AO2
K2C8 210115Z AUTO 16010KT 10SM CLR 20/12 A2932 RMK AO2
K2C8 210055Z AUTO 17011KT 10SM CLR 20/12 A2932 RMK AO2
K2C8 210035Z AUTO 18012KT 10SM CLR 21/12 A2932 RMK AO2
K2C8 210015Z AUTO 18016G21KT 10SM CLR 21/12 A2932 RMK AO2
K2C8 202355Z AUTO 18017G27KT 10SM CLR 22/12 A2932 RMK AO2
K2C8 202335Z AUTO 18015G22KT 10SM CLR 22/10 A2932 RMK AO2
K2C8 202315Z AUTO 18021G28KT 10SM CLR 23/10 A2931 RMK AO2
K2C8 202255Z AUTO 19021G30KT 9SM CLR 24/10 A2931 RMK AO2
K2C8 202235Z AUTO 17016G23KT 10SM CLR 25/11 A2931 RMK AO2
K2C8 202215Z AUTO 17015G22KT 10SM CLR 24/11 A2931 RMK AO2
K2C8 202155Z AUTO 16015G23KT 10SM CLR 24/11 A2931 RMK AO2
K2C8 202135Z AUTO 16017G25KT 9SM CLR 24/11 A2932 RMK AO2
K2C8 202115Z AUTO 17014G24KT 10SM CLR 25/10 A2933 RMK AO2
K2C8 202055Z AUTO 17018G27KT 10SM CLR 25/10 A2933 RMK AO2
K2C8 202035Z AUTO 16015G25KT 10SM CLR 24/10 A2934 RMK AO2
K2C8 202015Z AUTO 16017G23KT 10SM CLR 24/10 A2935 RMK AO2
K2C8 201955Z AUTO 17020KT 10SM CLR 24/10 A2936 RMK AO2
K2C8 201935Z AUTO 17016G22KT 10SM CLR 23/10 A2937 RMK AO2
K2C8 201915Z AUTO 17016G24KT 10SM CLR 23/12 A2938 RMK AO2
K2C8 201855Z AUTO 16015G20KT 10SM CLR 22/13 A2939 RMK AO2
K2C8 201835Z AUTO 17017G23KT 10SM CLR 22/12 A2940 RMK AO2
K2C8 201815Z AUTO 17016G23KT 10SM CLR 22/12 A2942 RMK AO2
K2C8 201755Z AUTO 17015KT 10SM CLR 20/12 A2943 RMK AO2
K2C8 201735Z AUTO 18015G20KT 10SM CLR 18/11 A2944 RMK AO2
K2C8 201715Z AUTO 16015G21KT 10SM CLR 17/11 A2945 RMK AO2
K2C8 201655Z AUTO 18016G21KT 10SM CLR 16/11 A2946 RMK AO2
K2C8 201635Z AUTO 17014G20KT 10SM CLR 16/11 A2947 RMK AO2
K2C8 201615Z AUTO 18015G20KT 10SM CLR 14/10 A2948 RMK AO2
K2C8 201555Z AUTO 17011G18KT 10SM CLR 14/10 A2948 RMK AO2
K2C8 201535Z AUTO 16012G17KT 10SM CLR 13/10 A2949 RMK AO2
K2C8 201515Z AUTO 17011KT 10SM CLR 12/09 A2950 RMK AO2
K2C8 201455Z AUTO 17013KT 10SM CLR 11/09 A2951 RMK AO2
K2C8 201435Z AUTO 17013KT 10SM CLR 10/09 A2952 RMK AO2
K2C8 201415Z AUTO 17012KT 10SM CLR 09/08 A2953 RMK AO2
K2C8 201355Z AUTO 17011KT 10SM CLR 08/08 A2954 RMK AO2
K2C8 201335Z AUTO 16006KT 8SM CLR 07/07 A2954 RMK AO2
K2C8 201315Z AUTO 16006KT 10SM CLR 05/05 A2955 RMK AO2